Time;durP1;ratioP1;P1;durP2;ratioP2;P2;SDS_P1;SDS_P2;PMS_P1;PMS_P2;Temp;Humidity;BMP_temperature;BMP_pressure;BME280_temperature;BME280_humidity;BME280_pressure;Samples;Min_cycle;Max_cycle;Signal;HPM_P1;HPM_P2
2022/11/17 00:02:25;;;;;;;9.95;5.03;;;;;;;;;;5125282;27;20474;-83
2022/11/17 00:04:50;;;;;;;11.80;6.57;;;;;;;;;;5115636;27;20027;-83
2022/11/17 00:07:15;;;;;;;6.32;4.00;;;;;;;;;;5128092;27;20043;-85
2022/11/17 00:09:41;;;;;;;6.68;3.88;;;;;;;;;;5122126;27;20035;-85
2022/11/17 00:14:50;;;;;;;4.45;2.85;;;;;;;;;;5115946;27;20073;-82
2022/11/17 00:17:16;;;;;;;6.25;4.18;;;;;;;;;;5124532;27;20047;-83
2022/11/17 00:22:25;;;;;;;8.68;4.57;;;;;;;;;;5127405;27;20177;-86
2022/11/17 00:24:50;;;;;;;4.85;3.25;;;;;;;;;;5121012;27;20391;-86
2022/11/17 00:27:16;;;;;;;4.68;3.67;;;;;;;;;;5122609;27;20043;-86
2022/11/17 00:29:42;;;;;;;4.93;3.05;;;;;;;;;;5119825;27;20032;-85
2022/11/17 00:35:02;;;;;;;5.15;3.53;;;;;;;;;;5119766;27;20062;-86
2022/11/17 00:37:29;;;;;;;4.35;2.63;;;;;;;;;;5126922;27;20437;-85
2022/11/17 00:39:55;;;;;;;6.75;3.45;;;;;;;;;;5125923;27;20015;-83
2022/11/17 00:42:20;;;;;;;5.00;2.60;;;;;;;;;;5120295;27;20038;-85
2022/11/17 00:44:46;;;;;;;8.77;3.50;;;;;;;;;;5126212;27;20443;-86
2022/11/17 00:47:11;;;;;;;4.25;3.33;;;;;;;;;;5124950;27;20023;-83
2022/11/17 00:49:37;;;;;;;4.00;2.95;;;;;;;;;;5122463;27;20489;-85
2022/11/17 00:52:02;;;;;;;4.90;2.90;;;;;;;;;;5126445;27;20031;-86
2022/11/17 00:54:28;;;;;;;4.35;3.55;;;;;;;;;;5123579;27;20101;-86
2022/11/17 00:56:53;;;;;;;10.27;3.92;;;;;;;;;;5120697;27;20046;-85
2022/11/17 00:59:19;;;;;;;6.43;3.05;;;;;;;;;;5126605;27;20023;-84
2022/11/17 01:01:45;;;;;;;3.75;2.33;;;;;;;;;;5122479;27;20025;-85
2022/11/17 01:04:12;;;;;;;7.75;3.92;;;;;;;;;;5118630;27;20032;-84
2022/11/17 01:06:39;;;;;;;3.13;2.00;;;;;;;;;;5122447;27;20035;-85
2022/11/17 01:09:09;;;;;;;6.70;2.75;;;;;;;;;;5119108;27;20031;-84
2022/11/17 01:11:34;;;;;;;4.65;3.30;;;;;;;;;;5123902;27;20028;-84
2022/11/17 01:14:00;;;;;;;8.65;3.72;;;;;;;;;;5121652;27;20027;-84
2022/11/17 01:16:27;;;;;;;5.18;3.95;;;;;;;;;;5121785;27;20209;-84
2022/11/17 01:18:53;;;;;;;3.80;3.40;;;;;;;;;;5126076;27;20026;-83
2022/11/17 01:21:23;;;;;;;7.43;4.35;;;;;;;;;;5124305;27;20018;-85
2022/11/17 01:23:50;;;;;;;5.90;4.05;;;;;;;;;;5121794;27;20039;-83
2022/11/17 01:26:21;;;;;;;4.32;2.95;;;;;;;;;;5123384;27;20031;-85
2022/11/17 01:28:47;;;;;;;4.13;2.83;;;;;;;;;;5122933;27;20050;-84
2022/11/17 01:31:15;;;;;;;6.88;3.60;;;;;;;;;;5126717;27;20031;-83
2022/11/17 01:33:41;;;;;;;5.35;3.00;;;;;;;;;;5121933;27;20036;-82
2022/11/17 01:36:15;;;;;;;3.58;2.25;;;;;;;;;;5122296;27;20027;-82
2022/11/17 01:38:41;;;;;;;4.75;2.63;;;;;;;;;;5120300;27;20053;-83
2022/11/17 01:41:18;;;;;;;3.15;2.08;;;;;;;;;;5123857;27;20490;-82
2022/11/17 01:43:47;;;;;;;6.50;4.22;;;;;;;;;;5121867;27;20028;-83
2022/11/17 01:46:32;;;;;;;5.70;3.13;;;;;;;;;;5122262;27;20031;-83
2022/11/17 01:49:00;;;;;;;3.33;2.35;;;;;;;;;;5117090;27;20024;-86
2022/11/17 01:51:29;;;;;;;2.85;2.35;;;;;;;;;;5127147;27;20459;-82
2022/11/17 01:53:54;;;;;;;4.22;2.90;;;;;;;;;;5129035;27;20043;-83
2022/11/17 01:56:26;;;;;;;6.45;4.07;;;;;;;;;;5125231;27;20051;-83
2022/11/17 01:59:02;;;;;;;5.03;3.17;;;;;;;;;;5121936;27;20461;-82
2022/11/17 02:01:27;;;;;;;5.95;3.78;;;;;;;;;;5119820;27;20533;-84
2022/11/17 02:03:53;;;;;;;3.90;2.53;;;;;;;;;;5123490;27;20051;-86
2022/11/17 02:06:34;;;;;;;5.00;2.90;;;;;;;;;;5121551;27;20061;-83
2022/11/17 02:09:02;;;;;;;3.22;2.55;;;;;;;;;;5123715;27;20039;-85
2022/11/17 02:11:34;;;;;;;3.60;2.58;;;;;;;;;;5125873;27;20015;-83
2022/11/17 02:14:01;;;;;;;4.35;2.53;;;;;;;;;;5118904;27;20389;-82
2022/11/17 02:16:27;;;;;;;2.40;2.15;;;;;;;;;;5124190;27;20038;-81
2022/11/17 02:18:52;;;;;;;4.70;3.40;;;;;;;;;;5115817;27;20019;-84
2022/11/17 02:21:48;;;;;;;2.90;2.35;;;;;;;;;;5121065;27;20463;-83
2022/11/17 02:24:23;;;;;;;5.32;3.33;;;;;;;;;;5121220;27;20030;-83
2022/11/17 02:26:57;;;;;;;3.65;2.45;;;;;;;;;;5120767;27;20031;-85
2022/11/17 02:30:02;;;;;;;4.60;3.30;;;;;;;;;;5116757;27;20032;-84
2022/11/17 02:32:52;;;;;;;3.65;2.25;;;;;;;;;;5116512;27;20360;-82
2022/11/17 02:35:44;;;;;;;4.78;2.38;;;;;;;;;;5115792;27;20443;-83
2022/11/17 02:38:34;;;;;;;3.83;2.45;;;;;;;;;;5117352;27;20558;-83
2022/11/17 02:41:21;;;;;;;;;;;;;;;;;;5116855;27;20020;-85
2022/11/17 02:44:04;;;;;;;5.38;2.88;;;;;;;;;;5120263;27;19916;-82
2022/11/17 02:47:08;;;;;;;2.97;1.98;;;;;;;;;;5126374;27;20394;-85
2022/11/17 02:49:37;;;;;;;9.57;5.72;;;;;;;;;;5114709;27;20084;-83
2022/11/17 02:52:04;;;;;;;5.85;4.25;;;;;;;;;;5122041;27;20031;-83
2022/11/17 02:54:31;;;;;;;4.45;2.65;;;;;;;;;;5125377;27;20702;-85
2022/11/17 02:56:56;;;;;;;3.80;3.22;;;;;;;;;;5122728;27;20034;-83
2022/11/17 02:59:32;;;;;;;3.55;2.42;;;;;;;;;;5118346;27;20023;-83
2022/11/17 03:02:23;;;;;;;2.55;2.10;;;;;;;;;;5123698;27;20505;-81
2022/11/17 03:05:00;;;;;;;4.65;2.45;;;;;;;;;;5125829;27;20096;-83
2022/11/17 03:07:46;;;;;;;3.08;2.40;;;;;;;;;;5119097;27;20058;-84
2022/11/17 03:10:45;;;;;;;2.28;1.40;;;;;;;;;;5120603;27;20427;-83
2022/11/17 03:13:30;;;;;;;13.50;3.88;;;;;;;;;;5124884;27;20019;-85
2022/11/17 03:16:04;;;;;;;4.50;2.58;;;;;;;;;;5118961;27;20465;-83
2022/11/17 03:18:52;;;;;;;8.07;2.35;;;;;;;;;;5116950;27;20034;-85
2022/11/17 03:21:27;;;;;;;5.30;3.10;;;;;;;;;;5089285;27;20035;-81
2022/11/17 03:23:56;;;;;;;6.53;4.50;;;;;;;;;;5116514;27;20127;-81
2022/11/17 03:26:28;;;;;;;11.80;4.00;;;;;;;;;;5117507;27;20110;-83
2022/11/17 03:28:56;;;;;;;3.47;2.17;;;;;;;;;;5121169;27;20082;-82
2022/11/17 03:31:21;;;;;;;3.08;2.15;;;;;;;;;;5116537;27;20023;-84
2022/11/17 03:33:48;;;;;;;5.63;2.97;;;;;;;;;;5117430;27;20916;-83
2022/11/17 03:36:24;;;;;;;3.65;2.92;;;;;;;;;;5120154;27;20042;-84
2022/11/17 03:39:06;;;;;;;4.47;2.72;;;;;;;;;;5123300;27;20064;-82
2022/11/17 03:41:35;;;;;;;3.85;1.92;;;;;;;;;;5124519;27;20080;-84
2022/11/17 03:44:03;;;;;;;3.87;2.50;;;;;;;;;;5116854;27;20095;-83
2022/11/17 03:46:30;;;;;;;4.60;3.00;;;;;;;;;;5115899;28;20023;-82
2022/11/17 03:49:15;;;;;;;5.10;3.15;;;;;;;;;;5120812;28;20475;-85
2022/11/17 03:51:41;;;;;;;3.65;1.75;;;;;;;;;;5123494;27;20042;-84
2022/11/17 03:54:08;;;;;;;4.93;2.65;;;;;;;;;;5124747;28;21285;-83
2022/11/17 03:56:43;;;;;;;4.25;2.33;;;;;;;;;;5116212;28;20051;-86
2022/11/17 03:59:20;;;;;;;5.00;2.90;;;;;;;;;;5121057;28;20020;-84
2022/11/17 04:01:45;;;;;;;5.32;2.88;;;;;;;;;;5116063;28;20474;-84
2022/11/17 04:04:16;;;;;;;2.67;2.25;;;;;;;;;;5116097;28;20102;-86
2022/11/17 04:06:41;;;;;;;3.88;2.22;;;;;;;;;;5120433;28;20501;-86
2022/11/17 04:09:07;;;;;;;4.30;2.13;;;;;;;;;;5118857;28;20016;-87
2022/11/17 04:17:00;;;;;;;5.78;3.05;;;;;;;;;;5122393;28;20075;-85
2022/11/17 04:19:25;;;;;;;4.18;2.42;;;;;;;;;;5117386;28;20053;-85
2022/11/17 04:21:51;;;;;;;3.78;2.75;;;;;;;;;;5117690;28;20030;-84
2022/11/17 04:24:17;;;;;;;3.22;2.35;;;;;;;;;;5123521;28;20062;-83
2022/11/17 04:29:27;;;;;;;5.45;3.08;;;;;;;;;;5119292;28;20092;-83
2022/11/17 04:31:53;;;;;;;11.88;4.05;;;;;;;;;;5122268;27;20027;-83
2022/11/17 04:34:18;;;;;;;8.07;3.17;;;;;;;;;;5125322;28;20030;-84
2022/11/17 04:36:43;;;;;;;5.30;2.63;;;;;;;;;;5117718;28;20031;-88
2022/11/17 04:39:13;;;;;;;5.95;3.15;;;;;;;;;;5123403;28;20030;-84
2022/11/17 04:41:56;;;;;;;6.13;3.20;;;;;;;;;;5125887;27;20027;-83
2022/11/17 04:44:24;;;;;;;3.92;2.78;;;;;;;;;;5122967;28;20059;-84
2022/11/17 04:46:50;;;;;;;3.70;2.22;;;;;;;;;;5120242;27;20053;-83
2022/11/17 04:49:17;;;;;;;6.55;3.40;;;;;;;;;;5119013;27;20020;-85
2022/11/17 04:51:44;;;;;;;1.10;0.95;;;;;;;;;;5123700;27;20030;-82
2022/11/17 04:54:12;;;;;;;2.17;1.58;;;;;;;;;;5122910;27;20031;-83
2022/11/17 04:56:37;;;;;;;2.40;1.67;;;;;;;;;;5121180;27;20023;-84
2022/11/17 04:59:03;;;;;;;1.60;1.08;;;;;;;;;;5119607;27;20040;-83
2022/11/17 05:01:29;;;;;;;4.07;2.03;;;;;;;;;;5121426;27;20031;-86
2022/11/17 05:03:57;;;;;;;0.70;0.60;;;;;;;;;;5126661;27;20106;-87
2022/11/17 05:06:32;;;;;;;1.75;1.52;;;;;;;;;;5118095;27;20110;-85
2022/11/17 05:08:59;;;;;;;1.73;1.25;;;;;;;;;;5125279;27;20483;-82
2022/11/17 05:14:12;;;;;;;1.35;1.15;;;;;;;;;;5123455;27;20045;-82
2022/11/17 05:19:26;;;;;;;1.85;1.42;;;;;;;;;;5125489;27;20030;-82
2022/11/17 05:21:52;;;;;;;1.52;1.33;;;;;;;;;;5119808;27;20458;-81
2022/11/17 05:24:17;;;;;;;1.92;1.35;;;;;;;;;;5119663;27;20036;-82
2022/11/17 05:26:45;;;;;;;1.35;0.85;;;;;;;;;;5122532;27;20035;-84
2022/11/17 05:29:12;;;;;;;3.25;1.30;;;;;;;;;;5122307;27;20489;-84
2022/11/17 05:31:38;;;;;;;4.45;1.80;;;;;;;;;;5120108;27;20041;-83
2022/11/17 05:34:05;;;;;;;1.98;1.42;;;;;;;;;;5124570;27;20758;-84
2022/11/17 05:36:32;;;;;;;0.73;0.73;;;;;;;;;;5123100;27;20026;-84
2022/11/17 05:38:58;;;;;;;3.33;2.25;;;;;;;;;;5118453;27;20031;-82
2022/11/17 05:41:24;;;;;;;3.58;2.05;;;;;;;;;;5116941;27;20139;-81
2022/11/17 05:43:51;;;;;;;6.05;2.97;;;;;;;;;;5115555;27;20047;-83
2022/11/17 05:46:18;;;;;;;6.00;3.40;;;;;;;;;;5122610;27;20042;-81
2022/11/17 05:48:44;;;;;;;6.25;3.95;;;;;;;;;;5117057;27;20466;-81
2022/11/17 05:51:10;;;;;;;3.83;3.47;;;;;;;;;;5120151;27;20516;-81
2022/11/17 05:53:36;;;;;;;4.80;3.25;;;;;;;;;;5120387;27;20473;-81
2022/11/17 05:56:27;;;;;;;3.88;3.25;;;;;;;;;;5124722;27;20042;-83
2022/11/17 05:58:58;;;;;;;5.28;3.25;;;;;;;;;;5120757;27;20108;-84
2022/11/17 06:01:25;;;;;;;3.55;3.00;;;;;;;;;;5118072;27;20022;-83
2022/11/17 06:03:55;;;;;;;4.20;3.33;;;;;;;;;;5122669;27;21660;-83
2022/11/17 06:06:21;;;;;;;4.70;2.92;;;;;;;;;;5121423;27;20063;-83
2022/11/17 06:08:46;;;;;;;6.72;2.95;;;;;;;;;;5110976;27;20055;-84
2022/11/17 06:11:13;;;;;;;2.47;1.73;;;;;;;;;;5122581;27;20503;-81
2022/11/17 06:13:38;;;;;;;2.22;2.03;;;;;;;;;;5122633;27;20444;-80
2022/11/17 06:16:08;;;;;;;2.70;2.00;;;;;;;;;;5116271;27;20102;-83
2022/11/17 06:18:39;;;;;;;3.28;1.92;;;;;;;;;;5116707;27;20020;-81
2022/11/17 06:21:06;;;;;;;5.70;3.92;;;;;;;;;;5121270;27;20049;-84
2022/11/17 06:23:33;;;;;;;10.80;4.63;;;;;;;;;;5116284;27;20077;-84
2022/11/17 06:26:03;;;;;;;5.78;4.43;;;;;;;;;;5120374;27;20059;-81
2022/11/17 06:28:31;;;;;;;7.82;3.53;;;;;;;;;;5121699;27;20059;-83
2022/11/17 06:30:57;;;;;;;8.55;3.75;;;;;;;;;;5117533;27;20146;-84
2022/11/17 06:33:24;;;;;;;8.13;3.92;;;;;;;;;;5118358;27;20019;-82
2022/11/17 06:35:50;;;;;;;6.38;3.95;;;;;;;;;;5120361;27;20019;-83
2022/11/17 06:38:15;;;;;;;6.75;4.00;;;;;;;;;;5111164;27;20538;-82
2022/11/17 06:40:41;;;;;;;3.58;3.28;;;;;;;;;;5116491;27;20094;-85
2022/11/17 06:43:09;;;;;;;9.65;4.10;;;;;;;;;;5122878;27;20053;-86
2022/11/17 06:45:37;;;;;;;4.82;3.78;;;;;;;;;;5117286;27;20035;-83
2022/11/17 06:48:04;;;;;;;5.53;3.38;;;;;;;;;;5117024;27;20055;-81
2022/11/17 06:50:29;;;;;;;2.88;2.00;;;;;;;;;;5121149;27;20019;-86
2022/11/17 06:52:56;;;;;;;4.75;2.67;;;;;;;;;;5118358;27;20038;-82
2022/11/17 06:55:22;;;;;;;4.88;3.28;;;;;;;;;;5116494;27;20030;-84
2022/11/17 06:57:47;;;;;;;4.38;3.15;;;;;;;;;;5123333;27;20023;-83
2022/11/17 07:00:13;;;;;;;7.18;3.72;;;;;;;;;;5117077;27;20099;-84
2022/11/17 07:02:39;;;;;;;1.15;0.90;;;;;;;;;;5123002;27;20415;-85
2022/11/17 07:05:04;;;;;;;0.35;0.35;;;;;;;;;;5117995;27;20023;-81
2022/11/17 07:07:30;;;;;;;0.30;0.30;;;;;;;;;;5117412;27;20110;-83
2022/11/17 07:09:55;;;;;;;0.38;0.30;;;;;;;;;;5116717;27;20432;-83
2022/11/17 07:12:20;;;;;;;0.35;0.30;;;;;;;;;;5117016;27;20547;-83
2022/11/17 07:14:46;;;;;;;0.10;0.10;;;;;;;;;;5118883;27;20027;-85
2022/11/17 07:17:11;;;;;;;0.40;0.30;;;;;;;;;;5123115;27;20023;-84
2022/11/17 07:19:37;;;;;;;0.20;0.20;;;;;;;;;;5114736;27;20055;-84
2022/11/17 07:22:02;;;;;;;0.10;0.10;;;;;;;;;;5123291;27;20027;-85
2022/11/17 07:24:28;;;;;;;0.13;0.13;;;;;;;;;;5121546;27;20027;-83
2022/11/17 07:26:53;;;;;;;0.20;0.20;;;;;;;;;;5115426;27;20110;-85
2022/11/17 07:29:19;;;;;;;0.10;0.10;;;;;;;;;;5118737;27;20034;-82
2022/11/17 07:31:45;;;;;;;0.10;0.10;;;;;;;;;;5120173;27;20403;-83
2022/11/17 07:34:11;;;;;;;0.30;0.22;;;;;;;;;;5123291;27;20023;-84
2022/11/17 07:36:36;;;;;;;0.20;0.20;;;;;;;;;;5120758;27;20079;-80
2022/11/17 07:39:04;;;;;;;0.10;0.10;;;;;;;;;;5118214;27;20462;-83
2022/11/17 07:41:29;;;;;;;0.05;0.05;;;;;;;;;;5123051;27;20419;-81
2022/11/17 07:43:55;;;;;;;1.08;0.15;;;;;;;;;;5117408;27;20035;-83
2022/11/17 07:46:20;;;;;;;0.17;0.10;;;;;;;;;;5120710;28;20410;-84
2022/11/17 07:48:45;;;;;;;0.20;0.20;;;;;;;;;;5122236;28;20038;-83
2022/11/17 07:51:12;;;;;;;0.00;0.00;;;;;;;;;;5115511;28;20024;-82
2022/11/17 07:53:38;;;;;;;0.10;0.10;;;;;;;;;;5119746;28;20078;-85
2022/11/17 07:56:06;;;;;;;0.10;0.10;;;;;;;;;;5117525;28;20113;-83
2022/11/17 07:58:32;;;;;;;0.10;0.10;;;;;;;;;;5120429;28;20059;-83
2022/11/17 08:00:57;;;;;;;0.10;0.10;;;;;;;;;;5122387;28;20116;-85
2022/11/17 08:03:23;;;;;;;0.10;0.10;;;;;;;;;;5114970;28;20038;-84
2022/11/17 08:05:48;;;;;;;0.10;0.10;;;;;;;;;;5121229;27;20030;-85
2022/11/17 08:08:14;;;;;;;0.10;0.10;;;;;;;;;;5117004;27;20046;-84
2022/11/17 08:10:41;;;;;;;0.43;0.20;;;;;;;;;;5123933;28;20447;-83
2022/11/17 08:13:07;;;;;;;0.10;0.10;;;;;;;;;;5118175;28;20031;-83
2022/11/17 08:15:32;;;;;;;0.10;0.10;;;;;;;;;;5121090;28;20360;-85
2022/11/17 08:17:59;;;;;;;0.10;0.10;;;;;;;;;;5122408;27;20030;-83
2022/11/17 08:20:27;;;;;;;0.10;0.10;;;;;;;;;;5120571;28;20015;-84
2022/11/17 08:22:55;;;;;;;0.25;0.25;;;;;;;;;;5121799;27;20057;-85
2022/11/17 08:25:23;;;;;;;0.03;0.03;;;;;;;;;;5121961;27;20496;-82
2022/11/17 08:27:50;;;;;;;0.00;0.00;;;;;;;;;;5126426;27;20099;-83
2022/11/17 08:30:19;;;;;;;2.10;1.02;;;;;;;;;;5127780;27;20031;-85
2022/11/17 08:32:50;;;;;;;0.15;0.10;;;;;;;;;;5122602;27;20034;-86
2022/11/17 08:35:17;;;;;;;0.10;0.10;;;;;;;;;;5118929;27;20404;-86
2022/11/17 08:37:43;;;;;;;0.32;0.10;;;;;;;;;;5119544;27;20031;-86
2022/11/17 08:40:09;;;;;;;0.15;0.15;;;;;;;;;;5124325;27;20042;-84
2022/11/17 08:42:36;;;;;;;0.20;0.20;;;;;;;;;;5114967;27;20024;-85
2022/11/17 08:45:01;;;;;;;0.10;0.10;;;;;;;;;;5119974;27;20067;-84
2022/11/17 08:47:27;;;;;;;0.52;0.15;;;;;;;;;;5123926;27;20491;-85
2022/11/17 08:49:52;;;;;;;0.03;0.03;;;;;;;;;;5120290;27;20382;-83
2022/11/17 08:52:18;;;;;;;0.10;0.10;;;;;;;;;;5122397;27;20037;-84
2022/11/17 08:54:44;;;;;;;0.05;0.05;;;;;;;;;;5123580;27;20019;-83
2022/11/17 08:57:12;;;;;;;0.10;0.10;;;;;;;;;;5122216;27;20057;-87
2022/11/17 08:59:40;;;;;;;0.10;0.10;;;;;;;;;;5118811;27;20015;-86
2022/11/17 09:02:05;;;;;;;0.00;0.00;;;;;;;;;;5120768;27;20034;-84
2022/11/17 09:04:31;;;;;;;0.43;0.20;;;;;;;;;;5119364;27;20053;-85
2022/11/17 09:06:56;;;;;;;0.10;0.10;;;;;;;;;;5124538;27;20089;-84
2022/11/17 09:09:21;;;;;;;0.10;0.10;;;;;;;;;;5118492;27;20068;-83
2022/11/17 09:11:47;;;;;;;0.00;0.00;;;;;;;;;;5120264;27;20031;-84
2022/11/17 09:14:12;;;;;;;0.10;0.10;;;;;;;;;;5126110;27;20023;-83
2022/11/17 09:16:38;;;;;;;0.10;0.10;;;;;;;;;;5115802;27;20023;-82
2022/11/17 09:19:03;;;;;;;0.10;0.10;;;;;;;;;;5122358;27;20095;-83
2022/11/17 09:21:31;;;;;;;0.13;0.13;;;;;;;;;;5126343;27;20045;-82
2022/11/17 09:46:28;;;;;;;1.23;0.50;;;;;;;;;;5108504;27;20392;-82
2022/11/17 09:49:29;;;;;;;1.67;0.95;;;;;;;;;;5101173;28;20036;-83
2022/11/17 09:51:59;;;;;;;3.28;1.90;;;;;;;;;;5100851;28;20065;-81
2022/11/17 09:54:27;;;;;;;1.88;1.25;;;;;;;;;;5105986;28;20126;-83
2022/11/17 09:56:55;;;;;;;1.75;1.20;;;;;;;;;;5103748;28;20459;-84
2022/11/17 09:59:24;;;;;;;1.38;1.02;;;;;;;;;;5107294;28;20115;-83
2022/11/17 10:01:49;;;;;;;2.58;1.33;;;;;;;;;;5108612;28;20069;-83
2022/11/17 10:04:18;;;;;;;3.13;1.50;;;;;;;;;;5106111;28;20028;-83
2022/11/17 10:06:47;;;;;;;1.25;0.88;;;;;;;;;;5106156;28;20063;-83
2022/11/17 10:09:21;;;;;;;2.27;1.57;;;;;;;;;;5105681;28;20123;-85
2022/11/17 10:11:47;;;;;;;2.13;1.15;;;;;;;;;;5108154;28;20479;-85
2022/11/17 10:14:18;;;;;;;1.13;0.90;;;;;;;;;;5105500;28;20473;-83
2022/11/17 10:16:55;;;;;;;1.73;1.10;;;;;;;;;;5107031;28;20031;-82
2022/11/17 10:19:27;;;;;;;2.35;1.30;;;;;;;;;;5106688;28;20423;-83
2022/11/17 10:22:01;;;;;;;2.00;0.80;;;;;;;;;;5105890;28;20023;-82
2022/11/17 10:24:35;;;;;;;0.40;0.40;;;;;;;;;;5108302;28;20078;-82
2022/11/17 10:27:06;;;;;;;1.35;0.68;;;;;;;;;;5104384;28;20035;-83
2022/11/17 10:29:31;;;;;;;0.10;0.10;;;;;;;;;;5107117;28;20034;-82
2022/11/17 10:31:58;;;;;;;0.47;0.15;;;;;;;;;;5105974;28;20028;-82
2022/11/17 10:34:33;;;;;;;0.10;0.10;;;;;;;;;;5108143;28;20025;-83
2022/11/17 10:37:20;;;;;;;0.20;0.20;;;;;;;;;;5105333;28;20451;-82
2022/11/17 10:39:45;;;;;;;0.10;0.10;;;;;;;;;;5106072;28;20072;-83
2022/11/17 10:42:26;;;;;;;1.40;0.10;;;;;;;;;;5107647;28;20417;-83
2022/11/17 10:44:55;;;;;;;0.30;0.30;;;;;;;;;;5106826;28;20058;-85
2022/11/17 10:47:38;;;;;;;0.03;0.03;;;;;;;;;;5094031;28;20031;-86
2022/11/17 10:50:13;;;;;;;0.30;0.28;;;;;;;;;;5093714;28;20468;-84
2022/11/17 10:52:39;;;;;;;0.10;0.10;;;;;;;;;;5091916;28;20098;-85
2022/11/17 10:55:19;;;;;;;0.10;0.10;;;;;;;;;;5093895;28;20111;-84
2022/11/17 10:57:49;;;;;;;0.10;0.10;;;;;;;;;;5090178;28;20743;-84
2022/11/17 11:00:34;;;;;;;0.10;0.10;;;;;;;;;;5089238;28;20054;-87
2022/11/17 11:03:16;;;;;;;0.10;0.10;;;;;;;;;;5091632;28;20438;-85
2022/11/17 11:05:58;;;;;;;0.22;0.20;;;;;;;;;;5092684;28;20031;-84
2022/11/17 11:08:33;;;;;;;0.28;0.28;;;;;;;;;;5092509;28;20031;-84
2022/11/17 11:10:59;;;;;;;1.35;0.70;;;;;;;;;;5090718;28;20046;-84
2022/11/17 11:13:32;;;;;;;0.20;0.20;;;;;;;;;;5092502;28;20027;-84
2022/11/17 11:15:58;;;;;;;0.22;0.17;;;;;;;;;;5093651;28;20047;-85
2022/11/17 11:18:27;;;;;;;0.05;0.05;;;;;;;;;;5092634;28;20117;-84
2022/11/17 11:21:03;;;;;;;0.30;0.30;;;;;;;;;;5090477;28;20475;-85
2022/11/17 11:23:53;;;;;;;0.00;0.00;;;;;;;;;;5088375;28;20027;-86
2022/11/17 11:26:34;;;;;;;0.10;0.10;;;;;;;;;;5090905;28;20035;-83
2022/11/17 11:29:21;;;;;;;0.30;0.25;;;;;;;;;;5093034;28;20055;-83
2022/11/17 11:32:41;;;;;;;0.00;0.00;;;;;;;;;;5091147;28;20031;-84
2022/11/17 11:35:28;;;;;;;0.20;0.15;;;;;;;;;;5033104;28;20136;-82
2022/11/17 11:38:32;;;;;;;1.08;0.45;;;;;;;;;;5087787;28;20556;-84
2022/11/17 11:41:18;;;;;;;0.10;0.10;;;;;;;;;;5085906;28;20782;-82
2022/11/17 11:43:55;;;;;;;0.08;0.08;;;;;;;;;;5092248;28;20032;-83
2022/11/17 11:46:27;;;;;;;0.10;0.10;;;;;;;;;;5088382;28;20036;-84
2022/11/17 11:48:57;;;;;;;0.20;0.20;;;;;;;;;;5090238;28;20078;-84
2022/11/17 11:51:35;;;;;;;0.30;0.30;;;;;;;;;;5093873;28;20486;-82
2022/11/17 11:54:04;;;;;;;0.10;0.10;;;;;;;;;;5090731;28;20020;-82
2022/11/17 11:56:39;;;;;;;0.17;0.17;;;;;;;;;;5092284;28;20360;-81
2022/11/17 11:59:29;;;;;;;0.30;0.30;;;;;;;;;;5089894;28;20050;-83
2022/11/17 12:02:10;;;;;;;0.20;0.20;;;;;;;;;;5091716;28;20020;-83
2022/11/17 12:05:12;;;;;;;0.25;0.25;;;;;;;;;;5093187;28;20027;-82
2022/11/17 12:08:13;;;;;;;0.10;0.10;;;;;;;;;;5086748;28;20131;-83
2022/11/17 12:10:41;;;;;;;0.13;0.13;;;;;;;;;;5090908;28;20387;-81
2022/11/17 12:13:12;;;;;;;0.88;0.68;;;;;;;;;;5093183;28;20383;-84
2022/11/17 12:15:37;;;;;;;0.38;0.38;;;;;;;;;;5092915;28;20645;-86
2022/11/17 12:18:17;;;;;;;2.47;0.73;;;;;;;;;;5091299;28;20051;-83
2022/11/17 12:20:51;;;;;;;0.08;0.08;;;;;;;;;;5089975;28;20028;-84
2022/11/17 12:23:39;;;;;;;0.20;0.20;;;;;;;;;;5090858;28;20023;-83
2022/11/17 12:26:05;;;;;;;0.30;0.30;;;;;;;;;;5091560;28;20467;-84
2022/11/17 12:28:39;;;;;;;1.15;0.90;;;;;;;;;;5091335;28;20531;-84
2022/11/17 12:31:23;;;;;;;2.05;1.40;;;;;;;;;;5090071;28;20035;-83
2022/11/17 12:33:51;;;;;;;0.40;0.40;;;;;;;;;;5093153;28;20826;-84
2022/11/17 12:36:22;;;;;;;0.88;0.57;;;;;;;;;;5093983;28;20027;-83
2022/11/17 12:38:49;;;;;;;0.20;0.20;;;;;;;;;;5090197;28;20029;-85
2022/11/17 12:41:14;;;;;;;0.47;0.40;;;;;;;;;;5094152;28;20109;-83
2022/11/17 12:43:39;;;;;;;0.30;0.30;;;;;;;;;;5090909;28;20062;-85
2022/11/17 12:46:24;;;;;;;0.40;0.25;;;;;;;;;;5092274;28;20088;-82
2022/11/17 12:49:05;;;;;;;0.50;0.28;;;;;;;;;;5092459;28;20023;-83
2022/11/17 12:51:51;;;;;;;0.85;0.50;;;;;;;;;;5092213;28;20053;-84
2022/11/17 12:54:20;;;;;;;0.65;0.52;;;;;;;;;;5089822;28;20455;-84
2022/11/17 12:57:02;;;;;;;1.10;0.63;;;;;;;;;;5092348;28;20023;-80
2022/11/17 12:59:43;;;;;;;0.38;0.38;;;;;;;;;;5092177;28;20042;-82
2022/11/17 13:02:39;;;;;;;1.08;0.90;;;;;;;;;;5088714;28;20475;-83
2022/11/17 13:05:20;;;;;;;0.75;0.60;;;;;;;;;;5092162;28;20077;-82
2022/11/17 13:07:46;;;;;;;1.85;0.75;;;;;;;;;;5091037;28;20101;-82
2022/11/17 13:10:29;;;;;;;0.40;0.40;;;;;;;;;;5092175;28;20047;-82
2022/11/17 13:13:18;;;;;;;0.52;0.50;;;;;;;;;;5089614;28;20032;-85
2022/11/17 13:15:47;;;;;;;1.00;0.40;;;;;;;;;;5090464;28;20032;-84
2022/11/17 13:18:25;;;;;;;0.98;0.63;;;;;;;;;;5086766;28;20355;-84
2022/11/17 13:20:51;;;;;;;0.28;0.28;;;;;;;;;;5089220;28;20024;-84
2022/11/17 13:23:23;;;;;;;0.38;0.38;;;;;;;;;;5091818;28;20024;-84
2022/11/17 13:25:49;;;;;;;0.30;0.30;;;;;;;;;;5090533;28;20467;-81
2022/11/17 13:28:29;;;;;;;0.35;0.35;;;;;;;;;;5090812;28;20024;-81
2022/11/17 13:30:55;;;;;;;0.68;0.43;;;;;;;;;;5091702;28;20019;-82
2022/11/17 13:33:23;;;;;;;0.60;0.47;;;;;;;;;;5091002;28;20028;-82
2022/11/17 13:35:50;;;;;;;0.40;0.40;;;;;;;;;;5090607;28;20070;-84
2022/11/17 13:38:20;;;;;;;1.50;0.85;;;;;;;;;;5089449;28;20039;-82
2022/11/17 13:40:48;;;;;;;0.10;0.10;;;;;;;;;;5091430;28;20483;-82
2022/11/17 13:43:17;;;;;;;0.63;0.40;;;;;;;;;;5090750;28;20047;-84
2022/11/17 13:45:44;;;;;;;0.37;0.30;;;;;;;;;;5090632;28;20040;-82
2022/11/17 13:48:28;;;;;;;0.40;0.40;;;;;;;;;;5090963;28;20381;-84
2022/11/17 13:50:54;;;;;;;0.55;0.43;;;;;;;;;;5089859;28;20091;-84
2022/11/17 13:53:25;;;;;;;0.55;0.40;;;;;;;;;;5090273;28;20105;-83
2022/11/17 13:55:51;;;;;;;0.52;0.35;;;;;;;;;;5090663;28;20430;-81
2022/11/17 13:58:39;;;;;;;0.30;0.30;;;;;;;;;;5089798;28;20024;-83
2022/11/17 14:01:05;;;;;;;1.08;0.82;;;;;;;;;;5086014;28;21031;-83
2022/11/17 14:03:37;;;;;;;0.30;0.30;;;;;;;;;;5091140;28;20054;-82
2022/11/17 14:06:04;;;;;;;0.57;0.47;;;;;;;;;;5089347;28;20506;-83
2022/11/17 14:08:32;;;;;;;0.40;0.25;;;;;;;;;;5087231;28;20044;-82
2022/11/17 14:11:05;;;;;;;0.30;0.30;;;;;;;;;;5085746;28;20043;-83
2022/11/17 14:13:37;;;;;;;0.30;0.30;;;;;;;;;;5088186;28;20502;-82
2022/11/17 14:16:03;;;;;;;1.95;0.88;;;;;;;;;;5086448;28;20020;-82
2022/11/17 14:18:33;;;;;;;0.45;0.38;;;;;;;;;;5088981;28;20161;-82
2022/11/17 14:21:24;;;;;;;;;;;;;;;;;;5089543;28;20289;-83
2022/11/17 14:24:00;;;;;;;1.15;0.55;;;;;;;;;;5087030;28;20056;-83
2022/11/17 14:26:26;;;;;;;0.68;0.50;;;;;;;;;;5093839;28;20348;-82
2022/11/17 14:28:52;;;;;;;1.05;0.50;;;;;;;;;;5090946;28;20035;-82
2022/11/17 14:31:18;;;;;;;0.93;0.57;;;;;;;;;;5093557;28;20539;-82
2022/11/17 14:33:44;;;;;;;0.68;0.65;;;;;;;;;;5092386;28;20039;-81
2022/11/17 14:36:13;;;;;;;0.77;0.77;;;;;;;;;;5093774;28;20054;-82
2022/11/17 14:38:39;;;;;;;1.20;0.93;;;;;;;;;;5090377;28;20529;-84
2022/11/17 14:41:04;;;;;;;1.10;0.70;;;;;;;;;;5090092;28;20037;-82
2022/11/17 14:43:31;;;;;;;0.88;0.60;;;;;;;;;;5093155;28;20028;-83
2022/11/17 14:45:56;;;;;;;0.65;0.57;;;;;;;;;;5086220;28;20052;-83
2022/11/17 14:48:22;;;;;;;0.47;0.47;;;;;;;;;;5093556;28;20463;-83
2022/11/17 14:50:47;;;;;;;0.52;0.38;;;;;;;;;;5093296;28;20023;-83
2022/11/17 14:53:13;;;;;;;2.80;1.35;;;;;;;;;;5090926;28;20103;-82
2022/11/17 14:55:38;;;;;;;2.35;1.35;;;;;;;;;;5090419;28;21074;-84
2022/11/17 14:58:04;;;;;;;0.47;0.45;;;;;;;;;;5095533;28;20085;-82
2022/11/17 15:00:29;;;;;;;1.35;0.55;;;;;;;;;;5093091;28;20031;-82
2022/11/17 15:02:55;;;;;;;2.17;1.38;;;;;;;;;;5093816;28;20040;-83
2022/11/17 15:05:20;;;;;;;4.00;1.98;;;;;;;;;;5091810;28;20078;-83
2022/11/17 15:07:45;;;;;;;1.63;1.20;;;;;;;;;;5093382;28;20028;-83
2022/11/17 15:10:11;;;;;;;4.15;1.95;;;;;;;;;;5092825;28;20032;-86
2022/11/17 15:12:36;;;;;;;1.40;1.25;;;;;;;;;;5090732;28;20099;-82
2022/11/17 15:15:03;;;;;;;3.35;2.58;;;;;;;;;;5092117;28;20038;-83
2022/11/17 15:17:29;;;;;;;2.70;1.42;;;;;;;;;;5090717;28;20467;-85
2022/11/17 15:19:55;;;;;;;3.40;2.53;;;;;;;;;;5093152;28;20149;-83
2022/11/17 15:22:20;;;;;;;3.22;2.17;;;;;;;;;;5094862;28;20028;-82
2022/11/17 15:24:46;;;;;;;3.92;2.15;;;;;;;;;;5093454;28;20040;-81
2022/11/17 15:27:12;;;;;;;2.20;1.50;;;;;;;;;;5095150;28;20024;-82
2022/11/17 15:29:37;;;;;;;3.33;2.05;;;;;;;;;;5088487;28;20031;-82
2022/11/17 15:32:03;;;;;;;1.63;1.25;;;;;;;;;;5094322;28;20656;-82
2022/11/17 15:34:28;;;;;;;2.47;1.67;;;;;;;;;;5091259;28;20478;-83
2022/11/17 15:36:54;;;;;;;3.15;2.15;;;;;;;;;;5093703;28;20032;-83
2022/11/17 15:39:19;;;;;;;4.95;3.10;;;;;;;;;;5089322;28;20028;-82
2022/11/17 15:41:45;;;;;;;8.85;3.45;;;;;;;;;;5093877;28;20031;-81
2022/11/17 15:44:11;;;;;;;2.63;1.65;;;;;;;;;;5090279;28;20494;-81
2022/11/17 15:46:36;;;;;;;4.95;2.80;;;;;;;;;;5093624;28;20031;-83
2022/11/17 15:49:02;;;;;;;4.40;3.10;;;;;;;;;;5092470;28;20027;-82